Current Month

Pierce College

Hourly Data | America/Los_Angeles
as of 12/8/22 11:50 AM PST
Date & Time Temp Max (°F) Temp Min (°F) RH (%) Dew Pt (°F) Latest Rain (In) Soil Temp (°F) Soil Moist (%) Wind Spd (mph) Wind Dir (°) Wind Gust (mph) Leaf Wet Raw (mV) Net Radiation (W/m²) Evap Pan Max Wind (mph) Evap Pan H2O Max Temp (°F) Evap Pan Level (In)
12/8/22 - 1100 58.4 54.2 47 36.6 0.00 53.3 29.4 1.3 WSW | 253 4.3 268 306 3.7 124.2 3.8
12/8/22 - 1000 54.6 48.1 70 41.7 0.00 53.6 29.3 1.0 SW | 231 3.1 269 272 2.7 113.5 3.8
12/8/22 - 0900 48.2 39.6 93 43.0 0.00 53.8 29.2 0.1 SW | 218 1.2 288 138 0.0 102.9 3.8
12/8/22 - 0800 39.6 34.3 95 34.9 0.00 56.0 29.2 0.2 SSE | 154 1.1 358 19 0.0 93.9 3.8
12/8/22 - 0700 35.2 34.3 94 33.3 0.00 56.2 29.2 0.3 S | 191 2.0 282 -10 0.0 93.0 3.8
12/8/22 - 0600 36.5 34.5 94 33.8 0.00 54.5 29.3 0.2 S | 184 1.4 390 -12 0.0 90.7 3.8
12/8/22 - 0500 37.1 35.1 94 34.8 0.00 56.6 29.4 0.0 SSE | 154 1.2 387 -13 0.0 91.3 3.8
12/8/22 - 0400 37.5 36.3 94 35.3 0.00 56.5 29.4 0.5 SSE | 160 1.8 381 -13 0.0 93.4 3.8
12/8/22 - 0300 38.4 36.8 93 35.8 0.00 57.3 29.5 0.2 S | 190 1.8 382 -14 0.0 97.6 3.8
12/8/22 - 0200 39.4 37.7 93 36.5 0.00 55.1 29.6 0.1 SW | 217 1.8 380 -15 0.0 114.0 3.8
12/8/22 - 0100 40.4 38.9 92 37.6 0.00 55.0 29.6 0.1 SSW | 200 1.3 395 -17 0.0 116.8 3.8
12/8/22 - 0000 41.1 39.6 92 38.0 0.00 57.2 29.7 0.2 SSE | 167 1.5 386 -19 0.0 - 3.8
12/7/22 - 2300 42.4 40.9 91 39.1 0.00 56.1 29.7 0.4 S | 189 2.3 384 -22 0.4 - 3.8
12/7/22 - 2200 43.2 42.1 89 39.5 0.00 57.7 29.8 0.3 S | 176 2.1 365 -27 0.0 - 3.8
12/7/22 - 2100 45.4 42.8 86 39.9 0.00 58.8 29.8 0.3 SSE | 161 2.2 326 -44 2.0 - 3.8
12/7/22 - 2000 47.0 45.2 81 40.6 0.00 55.8 29.9 0.8 S | 175 2.3 290 -61 1.5 - 3.8
12/7/22 - 1900 50.8 46.8 73 40.5 0.00 57.5 30.0 1.2 S | 190 2.6 274 -65 2.1 - 3.8
12/7/22 - 1800 52.6 50.5 65 40.1 0.00 55.4 30.0 1.6 SW | 229 4.3 271 -69 3.5 - 3.8
12/7/22 - 1700 55.7 52.6 59 40.3 0.00 58.3 30.1 2.5 SSW | 195 6.2 270 -58 5.1 - 3.8
12/7/22 - 1600 58.1 55.7 52 39.8 0.00 57.7 30.1 3.4 SSE | 162 7.8 268 58 5.0 - 3.8
12/7/22 - 1500 57.8 55.7 55 40.2 0.00 56.2 30.1 2.9 S | 171 6.6 268 -1 4.9 - 3.8
12/7/22 - 1400 60.2 56.8 48 39.4 0.00 56.6 30.1 2.8 ESE | 122 7.9 268 230 4.2 - 3.8
12/7/22 - 1300 61.4 57.7 47 39.5 0.00 55.4 30.0 1.6 ESE | 114 5.1 268 258 4.4 - 3.8
12/7/22 - 1200 60.2 56.4 53 40.9 0.00 54.5 30.0 1.8 SSW | 202 5.3 268 277 4.2 - 3.8
12/7/22 - 1100 59.2 54.7 60 43.0 0.00 56.5 29.8 1.1 N | 359 4.2 269 312 3.7 - 3.8
12/7/22 - 1000 55.8 49.7 74 44.7 0.00 56.9 29.7 0.5 NNE | 32 2.5 270 266 1.9 - 3.8
12/7/22 - 0900 50.3 43.6 92 45.7 0.00 57.1 29.7 0.2 NNE | 27 1.6 278 146 0.0 - 3.8
12/7/22 - 0800 43.4 38.6 95 38.8 0.00 57.1 29.7 0.0 SE | 134 0.7 359 18 0.0 - 3.8
12/7/22 - 0700 39.6 38.6 94 37.6 0.00 57.1 29.7 0.1 S | 179 1.1 386 -10 0.0 - 3.8
12/7/22 - 0600 40.4 39.4 94 38.4 0.00 56.9 29.8 0.1 S | 174 1.4 384 -13 0.0 - 3.8
12/7/22 - 0500 42.0 39.8 94 39.3 0.00 56.4 29.8 0.0 SE | 127 1.2 382 -14 0.0 - 3.8
12/7/22 - 0400 43.5 41.9 94 41.2 0.00 58.7 29.9 0.3 SE | 145 1.9 372 -11 0.0 - 3.8
12/7/22 - 0300 42.7 41.4 94 40.4 0.00 58.2 29.9 0.2 SSW | 213 1.6 363 -10 0.0 - 3.8
12/7/22 - 0200 43.0 42.0 93 40.7 0.01 58.2 30.0 0.2 S | 177 2.4 364 -8 0.0 - 3.8
12/7/22 - 0100 42.8 41.4 93 40.2 0.00 56.3 30.0 0.2 SSW | 197 2.0 376 -15 0.0 - 3.8
12/7/22 - 0000 43.6 41.5 92 40.8 0.00 57.8 30.0 0.1 SSW | 198 1.6 376 -19 0.0 - 3.8
12/6/22 - 2300 45.1 43.2 91 41.6 0.00 59.6 30.1 0.2 S | 183 1.5 377 -23 0.0 - 3.8
12/6/22 - 2200 45.5 44.2 89 41.8 0.00 57.5 30.1 0.3 SSE | 162 1.7 350 -34 1.0 - 3.8
12/6/22 - 2100 48.4 45.3 84 42.4 0.00 57.0 30.2 0.6 SSE | 165 2.2 312 -55 1.0 - 3.8
12/6/22 - 2000 50.9 48.1 79 43.1 0.00 58.7 30.3 1.1 S | 189 2.7 281 -64 1.6 - 3.8
12/6/22 - 1900 53.3 50.7 73 43.7 0.00 56.9 30.4 1.5 SSW | 212 3.6 273 -64 3.5 - 3.8
12/6/22 - 1800 55.3 53.3 68 43.9 0.00 60.5 30.4 2.7 SW | 230 5.7 270 -52 4.3 - 3.8
12/6/22 - 1700 57.8 55.1 61 43.0 0.00 58.6 30.4 1.9 S | 191 5.2 270 -23 3.6 - 3.8
12/6/22 - 1600 58.4 56.8 58 42.8 0.00 58.7 30.4 2.0 SSW | 198 5.1 269 -1 3.8 - 3.8
12/6/22 - 1500 61.6 57.7 53 42.8 0.00 56.9 30.4 1.7 S | 182 5.3 269 144 3.5 - 3.8
12/6/22 - 1400 59.3 57.7 56 42.9 0.00 58.2 30.4 1.7 SE | 145 4.9 269 132 4.0 - 3.8
12/6/22 - 1300 59.4 56.4 60 44.1 0.00 56.5 30.3 1.2 E | 85 4.9 269 163 2.8 - 3.8
12/6/22 - 1200 57.6 56.4 64 45.0 0.00 57.2 30.3 0.6 NNE | 13 2.7 270 63 2.4 - 3.8
12/6/22 - 1100 58.2 56.0 65 45.1 0.00 56.8 30.2 1.5 E | 82 5.2 270 213 3.3 - 3.8
12/6/22 - 1000 57.2 51.8 69 44.4 0.00 57.2 30.1 0.8 ENE | 65 3.3 270 210 3.1 - 3.8
12/6/22 - 0900 52.0 47.7 84 45.8 0.00 58.6 30.1 0.3 NNE | 16 2.3 281 122 0.7 - 3.8
12/6/22 - 0800 47.6 44.2 93 43.2 0.00 58.7 30.1 0.4 SE | 145 1.7 339 20 0.0 - 3.8
12/6/22 - 0700 45.8 44.4 93 43.4 0.00 58.8 30.2 0.0 W | 271 1.1 335 -4 0.0 - 3.8
12/6/22 - 0600 44.7 43.2 93 42.0 0.00 57.4 30.2 0.0 SSE | 161 0.5 338 -4 0.0 - 3.8
12/6/22 - 0500 45.3 43.1 93 42.5 0.00 59.2 30.2 0.3 S | 170 1.8 349 -11 0.6 - 3.8
12/6/22 - 0400 45.0 43.7 93 42.6 0.00 60.3 30.2 0.1 SSE | 160 1.6 347 -5 0.0 - 3.8
12/6/22 - 0300 44.1 42.3 93 41.4 0.00 58.7 30.3 0.1 SSE | 159 1.8 358 -8 0.0 - 3.8
12/6/22 - 0200 43.7 41.9 92 40.9 0.00 59.8 30.3 0.0 SSE | 160 0.3 376 -17 0.0 - 3.8
12/6/22 - 0100 44.7 43.5 92 41.9 0.00 59.7 30.4 0.0 SSE | 148 0.9 379 -19 0.0 - 3.8
12/6/22 - 0000 46.0 44.3 91 42.7 0.00 59.8 30.5 0.1 S | 175 1.1 374 -22 0.0 - 3.8
12/5/22 - 2300 47.1 45.7 89 43.4 0.00 60.2 30.5 0.2 SSE | 167 1.5 355 -29 0.0 - 3.8
12/5/22 - 2200 49.3 46.8 86 44.0 0.00 60.2 30.5 0.2 SSW | 196 1.8 320 -46 0.4 - 3.8
12/5/22 - 2100 52.9 49.2 78 44.8 0.00 59.4 30.6 0.1 S | 172 1.4 286 -58 0.0 - 3.8
12/5/22 - 2000 54.0 52.7 72 44.8 0.00 59.5 30.6 1.0 S | 185 3.5 272 -34 2.5 - 3.8
12/5/22 - 1900 54.8 53.8 66 43.2 0.00 60.1 30.7 1.3 SSW | 213 3.7 270 -43 2.3 - 3.8
12/5/22 - 1800 57.3 54.6 60 42.0 0.00 60.0 30.7 2.6 SW | 231 6.3 270 -56 4.9 - 3.8
12/5/22 - 1700 60.0 57.1 56 42.8 0.00 58.7 30.8 3.3 SW | 220 7.6 269 -6 5.8 - 3.8
12/5/22 - 1600 60.4 58.8 56 44.0 0.00 59.6 30.8 3.6 S | 181 7.5 268 107 5.7 - 3.8
12/5/22 - 1500 63.0 58.8 54 43.8 0.00 59.2 30.8 2.7 SSE | 150 6.0 269 129 5.3 - 3.8
12/5/22 - 1400 63.9 60.4 45 40.5 0.00 59.2 30.7 2.1 SSE | 167 8.4 267 238 6.4 - 3.8
12/5/22 - 1300 62.8 60.5 42 38.6 0.00 58.9 30.6 1.2 ESE | 111 3.7 267 221 2.4 - 3.8
12/5/22 - 1200 61.3 59.2 48 40.2 0.00 58.8 30.6 1.8 SW | 215 5.8 268 248 4.3 - 3.8
12/5/22 - 1100 62.4 56.6 56 44.1 0.00 58.8 30.5 1.3 SSE | 149 5.7 269 338 4.5 - 3.8
12/5/22 - 1000 57.1 53.5 83 49.7 0.00 59.2 30.4 1.1 W | 262 5.1 271 236 4.6 - 3.8
12/5/22 - 0900 53.7 50.7 93 49.5 0.00 59.5 30.4 0.4 NNE | 27 2.5 298 136 0.0 - 3.8
12/5/22 - 0800 51.1 46.9 94 47.5 0.00 59.4 30.4 0.9 SSW | 209 2.6 354 42 1.5 - 3.8
12/5/22 - 0700 49.0 47.2 94 46.4 0.00 58.2 30.4 0.4 SSW | 212 1.8 372 -2 0.0 - 3.8
12/5/22 - 0600 48.8 46.5 94 46.0 0.00 59.8 30.5 0.2 SSW | 205 1.9 358 -2 0.0 - 3.8
12/5/22 - 0500 50.2 47.1 93 46.6 0.00 60.1 30.5 0.6 SSW | 195 2.3 391 -5 0.0 - 3.8
12/5/22 - 0400 51.5 49.5 93 48.6 0.00 59.3 30.6 0.3 SSE | 158 1.3 392 -4 0.0 - 3.8
12/5/22 - 0300 53.0 50.6 93 50.3 0.00 60.1 30.6 0.9 SSW | 202 3.6 366 -3 2.0 - 3.8
12/5/22 - 0200 53.8 50.6 92 50.4 0.00 59.9 30.6 0.4 SW | 229 2.8 353 -4 0.0 - 3.8
12/5/22 - 0100 53.8 53.2 92 51.3 0.00 60.0 30.6 0.3 SSW | 203 2.5 313 -2 1.6 - 3.8
12/5/22 - 0000 54.8 53.5 91 51.6 0.00 60.3 30.7 0.9 WSW | 246 3.4 309 -3 2.9 - 3.8
12/4/22 - 2300 55.8 54.4 90 52.1 0.00 60.1 30.7 0.3 SW | 214 2.0 296 -3 0.0 - 3.8
12/4/22 - 2200 56.7 55.5 89 53.0 0.00 60.2 30.7 0.9 SW | 226 2.1 280 -3 1.2 - 3.8
12/4/22 - 2100 57.0 56.4 89 53.5 0.00 60.1 30.7 0.4 W | 262 1.9 276 -2 1.1 - 3.8
12/4/22 - 2000 56.7 56.0 89 53.0 0.00 60.0 30.7 0.3 S | 188 1.4 276 -2 0.0 - 3.8
12/4/22 - 1900 57.5 56.0 86 52.8 0.00 60.4 30.7 0.5 SSW | 203 1.9 281 -4 0.0 - 3.8
12/4/22 - 1800 58.5 57.3 82 52.6 0.01 59.6 30.7 0.8 SW | 214 2.8 300 -3 1.9 - 3.8
12/4/22 - 1700 58.9 58.3 81 52.6 0.00 58.8 30.7 0.5 E | 86 2.8 273 2 1.0 - 3.8
12/4/22 - 1600 59.8 58.6 81 53.1 0.00 58.8 30.7 1.4 ENE | 78 4.8 273 57 2.8 - 3.8
12/4/22 - 1500 59.0 58.0 84 53.6 0.00 58.2 30.7 0.7 ESE | 107 2.5 274 103 1.8 - 3.8
12/4/22 - 1400 59.3 58.1 80 52.6 0.00 59.4 30.6 1.1 SE | 127 3.9 305 100 2.7 - 3.8
12/4/22 - 1300 59.0 57.8 85 53.9 0.01 58.1 30.6 0.9 ENE | 70 4.4 305 86 1.9 - 3.8
12/4/22 - 1200 58.7 57.7 85 53.5 0.00 59.2 30.5 1.0 NNE | 33 2.9 273 103 1.1 - 3.8
12/4/22 - 1100 58.1 56.3 84 52.4 0.00 59.1 30.5 0.4 NE | 34 2.0 279 79 0.6 - 3.8
12/4/22 - 1000 56.4 54.9 90 53.0 0.00 59.2 30.5 0.2 ENE | 64 1.5 311 84 0.0 - 3.8
12/4/22 - 0900 55.2 53.1 94 52.3 0.00 59.2 30.5 0.1 NNE | 23 1.6 284 76 0.0 - 3.8
12/4/22 - 0800 53.4 52.1 94 51.0 0.00 59.4 30.5 0.0 S | 171 0.9 324 16 0.0 - 3.8
12/4/22 - 0700 52.4 51.7 94 50.5 0.00 59.5 30.5 0.0 N | 0 0.0 332 -0 0.0 - 3.8
12/4/22 - 0600 52.1 50.8 94 49.7 0.00 59.4 30.5 0.1 SW | 216 1.2 338 -2 0.0 - 3.8
12/4/22 - 0500 51.3 50.7 94 49.3 0.00 59.8 30.5 0.1 SSE | 168 1.1 346 -4 0.0 - 3.8
12/4/22 - 0400 51.0 50.1 94 48.8 0.00 59.9 30.5 0.1 S | 170 1.1 343 -4 0.0 - 3.8
12/4/22 - 0300 50.9 50.2 94 48.8 0.00 59.9 30.5 0.1 SSW | 200 1.3 360 -6 0.0 - 3.8
12/4/22 - 0200 51.0 49.2 94 48.1 0.00 60.0 30.5 0.3 SSE | 164 1.8 356 -8 0.0 - 3.8
12/4/22 - 0100 51.4 49.8 93 48.8 0.00 60.2 30.6 0.3 S | 184 1.8 366 -10 0.0 - 3.8
12/4/22 - 0000 51.0 49.6 93 48.1 0.00 60.2 30.6 0.3 S | 190 1.4 361 -11 0.0 - 3.8
12/3/22 - 2300 51.5 50.2 92 48.7 0.00 60.9 30.7 0.3 S | 185 2.2 383 -17 0.0 - 3.8
12/3/22 - 2200 52.1 50.7 91 48.6 0.00 60.4 30.7 0.1 S | 174 1.1 369 -22 0.0 - 3.8
12/3/22 - 2100 53.8 51.7 89 49.4 0.00 60.3 30.8 0.2 S | 173 1.9 350 -32 0.0 - 3.8
12/3/22 - 2000 56.2 53.7 85 50.3 0.00 60.2 30.9 0.4 SSE | 166 1.5 309 -52 0.0 - 3.8
12/3/22 - 1900 58.3 56.1 79 51.1 0.00 60.0 30.9 0.8 SW | 222 3.0 280 -58 2.1 - 3.8
12/3/22 - 1800 62.1 58.2 74 51.5 0.00 59.6 30.9 0.9 SW | 228 3.1 274 -60 2.6 - 3.8
12/3/22 - 1700 66.6 61.8 63 51.3 0.00 59.9 31.0 2.2 WSW | 253 6.8 270 -54 5.9 - 3.8
12/3/22 - 1600 72.5 66.5 50 49.2 0.00 59.4 31.0 2.9 SSW | 203 6.7 268 45 5.4 - 3.8
12/3/22 - 1500 72.0 67.9 49 50.1 0.00 59.1 30.9 1.0 NNW | 334 4.0 266 142 3.8 - 3.8
12/3/22 - 1400 71.4 67.8 51 50.8 0.00 58.7 30.9 1.5 WSW | 256 4.2 268 120 3.7 - 3.8
12/3/22 - 1300 71.7 68.6 49 50.2 0.00 58.6 30.8 1.1 NNE | 14 3.8 267 306 3.9 - 3.8
12/3/22 - 1200 70.5 66.0 51 49.1 0.00 58.3 30.6 1.0 E | 94 3.1 268 342 2.3 - 3.8
12/3/22 - 1100 67.6 61.8 58 50.4 0.00 57.6 30.5 0.7 ENE | 67 3.2 269 364 1.7 - 3.8
12/3/22 - 1000 62.6 55.9 84 54.2 0.00 57.8 30.4 0.3 N | 7 2.5 270 326 1.6 - 3.8
12/3/22 - 0900 56.1 50.1 94 51.6 0.00 58.6 30.4 0.2 E | 82 1.5 275 154 0.0 - 3.8
12/3/22 - 0800 50.1 45.9 95 45.9 0.00 58.7 30.4 0.2 SE | 146 1.3 341 28 0.0 - 3.8
12/3/22 - 0700 47.4 46.0 94 45.3 0.00 58.9 30.4 0.1 SSE | 167 1.3 376 -3 0.0 - 3.8
12/3/22 - 0600 48.0 46.9 94 45.8 0.00 59.0 30.5 0.1 SSE | 152 1.3 376 -4 0.0 - 3.8
12/3/22 - 0500 49.0 47.6 94 46.5 0.00 59.1 30.5 0.1 SSE | 158 1.6 374 -4 0.0 - 3.8
12/3/22 - 0400 49.4 48.3 94 47.2 0.01 59.4 30.6 0.1 SSW | 204 1.5 375 -4 0.0 - 3.8
12/3/22 - 0300 51.3 48.8 93 48.3 0.00 59.4 30.7 0.4 SSW | 198 2.1 360 -4 1.3 - 3.8
12/3/22 - 0200 52.6 51.2 93 49.9 0.00 59.4 30.7 0.7 S | 173 2.9 358 -4 1.5 - 3.8
12/3/22 - 0100 53.5 52.2 93 50.8 0.00 59.2 30.8 1.1 SSW | 210 3.3 357 -3 0.0 - 3.8
12/3/22 - 0000 53.8 53.1 93 51.4 0.00 58.8 30.8 0.2 SW | 233 2.6 352 -2 0.0 - 3.8
12/2/22 - 2300 54.1 53.5 92 51.6 0.00 59.6 30.9 0.4 NW | 316 4.3 342 -2 2.3 - 3.8
12/2/22 - 2200 53.9 53.5 92 51.5 0.00 59.7 30.9 0.6 SSW | 212 2.4 352 -2 0.0 - 3.8
12/2/22 - 2100 54.4 53.8 92 51.8 0.06 59.8 30.8 0.3 SSW | 204 2.5 430 -2 0.0 - 3.8
12/2/22 - 2000 54.3 53.6 92 51.5 0.03 59.6 30.3 0.3 SW | 214 2.3 469 -2 0.0 - 3.8
12/2/22 - 1900 54.6 53.8 91 51.6 0.00 59.4 30.2 0.5 SSW | 194 2.2 363 -3 0.0 - 3.8
12/2/22 - 1800 54.9 54.3 90 51.8 0.00 59.3 30.2 0.1 WSW | 242 2.4 302 -3 0.0 - 3.8
12/2/22 - 1700 54.8 54.3 90 51.7 0.00 58.6 30.2 0.1 N | 5 2.4 307 -0 0.0 - 3.8
12/2/22 - 1600 55.1 54.4 89 51.5 0.00 60.0 30.3 0.4 NE | 52 2.2 333 16 0.0 - 3.8
12/2/22 - 1500 54.7 53.9 90 51.5 0.00 59.1 30.3 1.2 E | 82 4.8 315 53 2.7 - 3.8
12/2/22 - 1400 54.7 53.7 91 51.6 0.01 59.0 30.3 0.9 ENE | 64 3.5 430 74 1.5 - 3.8
12/2/22 - 1300 54.2 53.1 92 51.2 0.00 59.0 30.2 1.6 ENE | 62 4.9 384 130 3.0 - 3.8
12/2/22 - 1200 53.3 52.1 93 50.7 0.01 59.0 30.2 1.7 ENE | 73 4.3 355 144 4.2 - 3.8
12/2/22 - 1100 52.6 51.6 94 50.4 0.01 59.1 30.2 1.7 ENE | 61 5.6 460 117 3.1 - 3.8
12/2/22 - 1000 51.8 51.2 94 49.8 0.01 59.2 30.2 1.4 NE | 49 3.7 451 78 2.7 - 3.8
12/2/22 - 0900 51.5 50.5 94 49.5 0.01 59.0 30.1 0.7 ENE | 58 3.0 443 49 1.9 - 3.8
12/2/22 - 0800 50.8 49.9 94 48.7 0.03 59.0 30.1 0.4 NE | 52 2.2 446 18 0.0 - 3.8
12/2/22 - 0700 50.2 49.7 94 48.4 0.02 59.0 30.0 0.4 ENE | 57 2.9 424 -1 1.1 - 3.8
12/2/22 - 0600 50.0 49.6 94 48.1 0.03 59.4 30.0 0.5 NE | 44 2.3 464 -2 0.1 - 3.8
12/2/22 - 0500 49.9 49.3 94 47.8 0.03 58.9 29.9 0.4 NE | 37 1.8 482 -2 0.0 - 3.8
12/2/22 - 0400 49.8 49.3 93 47.7 0.07 59.5 29.9 0.7 NE | 51 2.3 467 -2 1.3 - 3.8
12/2/22 - 0300 50.0 49.6 93 47.8 0.07 59.4 29.7 0.4 NE | 48 2.0 476 -2 1.4 - 3.8
12/2/22 - 0200 50.1 49.6 92 47.7 0.06 59.9 29.3 0.3 ENE | 63 2.7 528 -2 0.8 - 3.8
12/2/22 - 0100 50.5 49.7 91 47.8 0.02 59.3 28.7 0.5 NE | 52 1.8 475 -2 0.5 - 3.8
12/2/22 - 0000 50.8 50.2 89 47.4 0.02 59.7 28.7 0.4 ENE | 77 2.1 446 -3 1.1 - 3.8
12/1/22 - 2300 51.6 50.5 84 46.3 0.03 59.6 28.7 0.2 S | 181 1.4 440 -4 0.0 - 3.8
12/1/22 - 2200 52.3 51.4 75 44.2 0.00 60.1 28.6 0.4 ESE | 118 3.1 349 -12 1.9 - 3.8
12/1/22 - 2100 52.6 52.0 72 43.6 0.00 59.9 28.6 0.6 ESE | 122 3.6 270 -14 2.1 - 3.8
12/1/22 - 2000 52.4 52.0 71 43.2 0.00 60.7 28.6 0.7 SSE | 161 4.2 270 -15 2.8 - 3.8
12/1/22 - 1900 52.4 51.8 70 42.6 0.00 59.9 28.6 0.5 S | 173 2.6 270 -19 0.0 - 3.8
12/1/22 - 1800 52.9 52.1 69 42.6 0.00 59.8 28.6 1.3 S | 188 5.5 270 -26 4.2 - 3.8
12/1/22 - 1700 54.0 52.7 66 42.4 0.00 59.7 28.6 2.5 S | 175 6.3 270 -18 3.8 - 3.8
12/1/22 - 1600 55.9 53.7 62 41.9 0.00 59.1 28.7 3.0 S | 172 7.5 269 20 6.2 - 3.8
12/1/22 - 1500 57.1 55.6 58 41.8 0.00 59.7 28.6 2.6 SSE | 152 7.1 269 80 5.2 - 3.8
12/1/22 - 1400 57.1 54.6 62 42.9 0.00 59.4 28.6 2.2 S | 188 7.2 268 112 5.4 - 3.8
12/1/22 - 1300 54.8 53.4 73 45.7 0.00 59.3 28.6 1.3 NNE | 18 3.8 270 66 1.9 - 3.8
12/1/22 - 1200 54.2 52.1 78 46.8 0.00 59.0 28.6 0.5 NNW | 332 3.2 270 87 2.8 - 3.8
12/1/22 - 1100 52.3 51.2 82 46.4 0.00 59.4 28.6 0.7 W | 280 3.4 272 46 3.2 - 3.8
12/1/22 - 1000 52.8 51.4 74 44.0 0.00 59.6 28.6 0.6 SW | 236 3.4 272 12 2.7 - 3.8
12/1/22 - 0900 52.1 51.1 72 43.0 0.00 58.7 28.5 0.7 S | 171 2.8 270 13 2.0 - 3.8
12/1/22 - 0800 51.2 49.7 77 43.4 0.00 59.9 28.5 0.7 SE | 126 2.8 271 8 1.6 - 3.8
12/1/22 - 0700 51.6 49.7 74 42.5 0.00 59.8 28.6 1.5 SE | 146 4.1 318 -9 2.4 - 3.8
12/1/22 - 0600 51.6 49.8 69 40.8 0.00 59.4 28.6 0.7 ENE | 75 4.4 270 -12 2.7 - 3.8
12/1/22 - 0500 50.0 49.1 73 41.1 0.00 59.5 28.6 0.2 SSE | 165 1.6 270 -13 0.0 - 3.8
12/1/22 - 0400 49.7 49.1 73 41.1 0.00 60.0 28.6 0.1 SE | 141 1.1 270 -21 0.0 - 3.8
12/1/22 - 0300 51.8 49.3 69 40.6 0.00 60.3 28.6 0.0 SE | 137 1.0 270 -28 0.0 - 3.8
12/1/22 - 0200 52.4 51.7 66 41.1 0.00 59.8 28.6 0.7 SE | 146 3.2 270 -23 2.6 - 3.8
12/1/22 - 0100 52.9 52.1 69 42.4 0.00 60.7 28.7 0.9 ESE | 115 4.2 270 -19 2.4 - 3.8
12/1/22 - 0000 53.4 52.5 69 43.0 0.00 59.4 28.7 0.5 E | 85 2.5 270 -18 0.4 - 3.8
Max 72.5 68.6 95 54.2 0.07 60.9 31.0 3.6 - 8.4 528 364 6.4 124.2 3.8
Avg 52.8 50.7 81 45.5 0.00 58.7 30.1 0.8 - 3.0 325 38 1.6 102.8 3.8
Min 35.2 34.3 42 33.3 0.00 53.3 28.5 0.0 - 0.0 266 -69 0.0 90.7 3.8
Total - - - - 0.56 - - - - - - - - - -